Time;durP1;ratioP1;P1;durP2;ratioP2;P2;SDS_P1;SDS_P2;PMS_P1;PMS_P2;Temp;Humidity;BMP_temperature;BMP_pressure;BME280_temperature;BME280_humidity;BME280_pressure;Samples;Min_cycle;Max_cycle;Signal;HPM_P1;HPM_P2
2021/09/09 00:01:59;;;;;;;18.30;12.43;;;;;;;;;;773496;180;918751;-71
2021/09/09 00:04:25;;;;;;;15.63;11.60;;;;;;;;;;772045;180;917162;-72
2021/09/09 00:06:51;;;;;;;17.20;11.70;;;;;;;;;;778522;179;918895;-70
2021/09/09 00:09:17;;;;;;;18.03;12.13;;;;;;;;;;783836;176;921976;-70
2021/09/09 00:11:43;;;;;;;17.83;12.20;;;;;;;;;;784689;177;918615;-71
2021/09/09 00:14:09;;;;;;;17.03;12.53;;;;;;;;;;789445;177;919411;-71
2021/09/09 00:16:35;;;;;;;14.53;11.63;;;;;;;;;;782433;176;919182;-71
2021/09/09 00:19:00;;;;;;;16.23;10.77;;;;;;;;;;783867;177;918349;-70
2021/09/09 00:21:26;;;;;;;17.92;11.00;;;;;;;;;;787447;177;919067;-70
2021/09/09 00:23:52;;;;;;;16.90;12.00;;;;;;;;;;780652;177;922101;-70
2021/09/09 00:26:18;;;;;;;15.10;11.90;;;;;;;;;;782130;177;919162;-70
2021/09/09 00:28:44;;;;;;;18.23;12.15;;;;;;;;;;783467;177;919662;-70
2021/09/09 00:31:10;;;;;;;18.97;11.53;;;;;;;;;;782783;174;919725;-70
2021/09/09 00:33:36;;;;;;;15.27;10.93;;;;;;;;;;772874;179;918861;-70
2021/09/09 00:36:02;;;;;;;13.60;10.73;;;;;;;;;;771984;177;919278;-70
2021/09/09 00:38:27;;;;;;;14.40;10.40;;;;;;;;;;779493;179;919369;-70
2021/09/09 00:40:53;;;;;;;14.90;10.77;;;;;;;;;;768880;179;918801;-71
2021/09/09 00:43:19;;;;;;;16.33;10.90;;;;;;;;;;772207;179;918990;-70
2021/09/09 00:45:52;;;;;;;19.17;12.00;;;;;;;;;;782901;179;918613;-72
2021/09/09 00:48:17;;;;;;;14.30;11.37;;;;;;;;;;777680;179;918693;-70
2021/09/09 00:50:43;;;;;;;14.05;10.32;;;;;;;;;;779362;178;919167;-70
2021/09/09 00:53:09;;;;;;;18.60;11.50;;;;;;;;;;784292;177;920812;-69
2021/09/09 00:55:35;;;;;;;13.80;10.20;;;;;;;;;;783878;177;919992;-70
2021/09/09 00:58:01;;;;;;;14.63;11.63;;;;;;;;;;781628;177;919368;-69
2021/09/09 01:00:26;;;;;;;16.20;10.90;;;;;;;;;;781332;177;920554;-70
2021/09/09 01:02:52;;;;;;;19.80;13.30;;;;;;;;;;784801;178;923014;-70
2021/09/09 01:05:18;;;;;;;16.20;11.17;;;;;;;;;;779374;177;918645;-70
2021/09/09 01:07:44;;;;;;;17.40;10.77;;;;;;;;;;782445;177;915395;-70
2021/09/09 01:10:10;;;;;;;18.40;13.40;;;;;;;;;;788037;177;916175;-70
2021/09/09 01:12:36;;;;;;;16.70;11.73;;;;;;;;;;784416;177;932199;-70
2021/09/09 01:15:01;;;;;;;15.38;10.70;;;;;;;;;;783295;177;918865;-70
2021/09/09 01:17:27;;;;;;;15.97;10.37;;;;;;;;;;778081;177;919026;-69
2021/09/09 01:19:53;;;;;;;14.43;11.17;;;;;;;;;;790233;177;917854;-70
2021/09/09 01:22:19;;;;;;;15.33;11.67;;;;;;;;;;783132;177;918941;-69
2021/09/09 01:24:45;;;;;;;15.53;11.80;;;;;;;;;;782269;177;918474;-69
2021/09/09 01:27:11;;;;;;;16.40;11.23;;;;;;;;;;789983;177;917581;-69
2021/09/09 01:29:36;;;;;;;15.50;11.90;;;;;;;;;;784384;177;919059;-70
2021/09/09 01:32:03;;;;;;;15.20;11.77;;;;;;;;;;782627;177;918980;-69
2021/09/09 01:34:29;;;;;;;17.37;12.53;;;;;;;;;;785189;178;918033;-69
2021/09/09 01:36:54;;;;;;;17.13;11.77;;;;;;;;;;784433;177;918673;-69
2021/09/09 01:39:20;;;;;;;15.77;11.17;;;;;;;;;;783079;177;919368;-70
2021/09/09 01:41:49;;;;;;;13.83;10.83;;;;;;;;;;781554;177;918606;-67
2021/09/09 01:44:15;;;;;;;15.60;11.10;;;;;;;;;;789848;177;919038;-69
2021/09/09 01:46:41;;;;;;;18.03;11.50;;;;;;;;;;783607;177;918691;-69
2021/09/09 01:49:06;;;;;;;17.90;12.17;;;;;;;;;;785485;175;918110;-69
2021/09/09 01:51:32;;;;;;;17.60;12.73;;;;;;;;;;787585;177;919807;-69
2021/09/09 01:53:58;;;;;;;15.60;11.63;;;;;;;;;;783002;175;918785;-69
2021/09/09 01:56:24;;;;;;;18.93;11.37;;;;;;;;;;784801;177;919505;-70
2021/09/09 01:58:50;;;;;;;17.23;10.90;;;;;;;;;;790348;177;918815;-69
2021/09/09 02:01:16;;;;;;;14.43;11.10;;;;;;;;;;785700;177;918368;-69
2021/09/09 02:03:41;;;;;;;15.20;12.43;;;;;;;;;;785740;177;918293;-69
2021/09/09 02:06:07;;;;;;;14.57;11.27;;;;;;;;;;782290;179;919462;-70
2021/09/09 02:08:33;;;;;;;18.80;12.03;;;;;;;;;;787609;177;919166;-69
2021/09/09 02:10:59;;;;;;;16.57;12.47;;;;;;;;;;782644;176;918987;-69
2021/09/09 02:13:25;;;;;;;15.93;13.30;;;;;;;;;;785168;177;919124;-69
2021/09/09 02:15:51;;;;;;;20.33;11.50;;;;;;;;;;788588;178;919062;-69
2021/09/09 02:18:16;;;;;;;15.60;13.00;;;;;;;;;;784583;177;918910;-69
2021/09/09 02:20:42;;;;;;;19.77;12.47;;;;;;;;;;783068;177;918058;-69
2021/09/09 02:23:08;;;;;;;20.57;14.13;;;;;;;;;;787508;177;920496;-69
2021/09/09 02:25:34;;;;;;;20.90;15.40;;;;;;;;;;784376;177;1206405;-69
2021/09/09 02:28:00;;;;;;;19.60;14.00;;;;;;;;;;786738;177;919255;-69
2021/09/09 02:30:26;;;;;;;22.10;13.37;;;;;;;;;;776307;179;919028;-69
2021/09/09 02:32:51;;;;;;;21.90;14.70;;;;;;;;;;793111;175;918897;-69
2021/09/09 02:35:17;;;;;;;19.57;13.80;;;;;;;;;;784347;177;918531;-69
2021/09/09 02:37:43;;;;;;;19.10;13.90;;;;;;;;;;784624;177;917460;-68
2021/09/09 02:40:11;;;;;;;20.13;13.73;;;;;;;;;;789898;177;915806;-68
2021/09/09 02:42:35;;;;;;;19.63;13.43;;;;;;;;;;782243;177;917189;-69
2021/09/09 02:45:01;;;;;;;16.70;13.23;;;;;;;;;;783252;177;916437;-69
2021/09/09 02:47:27;;;;;;;18.33;13.63;;;;;;;;;;786907;176;914139;-68
2021/09/09 02:49:53;;;;;;;23.43;13.63;;;;;;;;;;784371;177;919287;-70
2021/09/09 02:52:19;;;;;;;14.63;12.40;;;;;;;;;;783073;177;918584;-68
2021/09/09 02:54:45;;;;;;;18.65;12.15;;;;;;;;;;785864;177;919043;-67
2021/09/09 02:57:11;;;;;;;23.17;12.20;;;;;;;;;;776855;179;918638;-69
2021/09/09 02:59:37;;;;;;;21.70;14.30;;;;;;;;;;783697;177;919037;-69
2021/09/09 03:02:04;;;;;;;17.52;13.52;;;;;;;;;;786336;175;1328279;-69
2021/09/09 03:04:30;;;;;;;20.43;13.20;;;;;;;;;;787424;177;919120;-69
2021/09/09 03:06:55;;;;;;;18.13;12.40;;;;;;;;;;784292;178;918223;-68
2021/09/09 03:09:22;;;;;;;18.93;11.83;;;;;;;;;;784855;177;921416;-70
2021/09/09 03:11:48;;;;;;;17.30;13.03;;;;;;;;;;792701;177;918311;-69
2021/09/09 03:14:14;;;;;;;17.37;12.57;;;;;;;;;;781693;177;919200;-69
2021/09/09 03:16:40;;;;;;;14.80;11.37;;;;;;;;;;783454;177;918893;-69
2021/09/09 03:19:06;;;;;;;14.43;11.77;;;;;;;;;;784864;177;919516;-68
2021/09/09 03:21:32;;;;;;;15.43;11.43;;;;;;;;;;775230;175;918574;-69
2021/09/09 03:23:57;;;;;;;20.43;12.17;;;;;;;;;;789845;177;918063;-69
2021/09/09 03:26:23;;;;;;;20.00;11.55;;;;;;;;;;773905;177;919040;-69
2021/09/09 03:28:49;;;;;;;16.63;13.07;;;;;;;;;;788244;177;948728;-69
2021/09/09 03:31:15;;;;;;;16.67;11.07;;;;;;;;;;783250;177;921305;-69
2021/09/09 03:33:41;;;;;;;13.50;10.60;;;;;;;;;;784956;177;919405;-70
2021/09/09 03:36:07;;;;;;;15.03;12.10;;;;;;;;;;786639;178;919468;-69
2021/09/09 03:38:33;;;;;;;20.17;13.97;;;;;;;;;;782737;177;918717;-69
2021/09/09 03:40:58;;;;;;;16.37;12.70;;;;;;;;;;780466;176;919318;-71
2021/09/09 03:43:24;;;;;;;21.63;12.80;;;;;;;;;;789992;177;918960;-69
2021/09/09 03:45:50;;;;;;;17.27;12.57;;;;;;;;;;781545;177;919576;-69
2021/09/09 03:48:16;;;;;;;14.47;12.23;;;;;;;;;;781624;177;918929;-69
2021/09/09 03:50:42;;;;;;;17.40;13.07;;;;;;;;;;783813;177;918481;-69
2021/09/09 03:53:08;;;;;;;20.37;12.93;;;;;;;;;;792445;177;918019;-68
2021/09/09 03:55:33;;;;;;;16.60;12.53;;;;;;;;;;783997;177;917624;-70
2021/09/09 03:57:59;;;;;;;18.43;12.63;;;;;;;;;;785258;177;896032;-69
2021/09/09 04:00:25;;;;;;;20.27;13.30;;;;;;;;;;784697;177;917159;-69
2021/09/09 04:02:51;;;;;;;17.30;12.97;;;;;;;;;;781846;177;917966;-70
2021/09/09 04:05:17;;;;;;;20.20;12.20;;;;;;;;;;787174;177;918571;-70
2021/09/09 04:07:43;;;;;;;23.43;13.33;;;;;;;;;;792302;177;625046;-68
2021/09/09 04:10:09;;;;;;;15.57;11.83;;;;;;;;;;780762;177;1124479;-69
2021/09/09 04:12:35;;;;;;;14.60;11.60;;;;;;;;;;787674;176;918423;-68
2021/09/09 04:15:02;;;;;;;17.60;12.20;;;;;;;;;;785902;177;918913;-69
2021/09/09 04:17:26;;;;;;;16.50;12.00;;;;;;;;;;765575;180;918660;-69
2021/09/09 04:19:52;;;;;;;16.43;11.57;;;;;;;;;;780827;177;918562;-69
2021/09/09 04:22:18;;;;;;;22.03;12.17;;;;;;;;;;785794;177;918402;-69
2021/09/09 04:24:44;;;;;;;19.10;13.00;;;;;;;;;;789475;177;919699;-70
2021/09/09 04:27:10;;;;;;;14.60;12.50;;;;;;;;;;783810;177;918911;-69
2021/09/09 04:29:36;;;;;;;17.33;13.03;;;;;;;;;;783325;177;919115;-70
2021/09/09 04:32:01;;;;;;;15.73;12.10;;;;;;;;;;789132;177;919133;-71
2021/09/09 04:34:27;;;;;;;15.77;12.05;;;;;;;;;;783186;177;1032577;-70
2021/09/09 04:36:53;;;;;;;23.43;13.30;;;;;;;;;;781685;177;919569;-70
2021/09/09 04:39:19;;;;;;;21.00;14.47;;;;;;;;;;783211;177;918794;-69
2021/09/09 04:41:45;;;;;;;17.80;13.47;;;;;;;;;;764856;181;916018;-70
2021/09/09 04:44:11;;;;;;;22.17;13.70;;;;;;;;;;779289;177;916290;-70
2021/09/09 04:46:37;;;;;;;17.83;12.15;;;;;;;;;;781373;177;1010135;-70
2021/09/09 04:49:02;;;;;;;20.27;12.83;;;;;;;;;;786945;177;918721;-70
2021/09/09 04:51:28;;;;;;;20.10;14.50;;;;;;;;;;781068;177;919100;-69
2021/09/09 04:53:54;;;;;;;21.43;15.40;;;;;;;;;;784266;177;919980;-70
2021/09/09 04:56:20;;;;;;;20.53;14.90;;;;;;;;;;786619;177;919359;-69
2021/09/09 04:58:46;;;;;;;19.70;14.03;;;;;;;;;;782251;176;919250;-70
2021/09/09 05:01:12;;;;;;;21.00;14.43;;;;;;;;;;782483;177;919372;-72
2021/09/09 05:03:37;;;;;;;21.43;14.87;;;;;;;;;;788218;177;919079;-69
2021/09/09 05:06:03;;;;;;;20.87;15.50;;;;;;;;;;783243;177;919245;-70
2021/09/09 05:08:29;;;;;;;22.77;16.77;;;;;;;;;;783458;177;919782;-70
2021/09/09 05:10:55;;;;;;;21.20;14.90;;;;;;;;;;783479;177;918909;-69
2021/09/09 05:13:21;;;;;;;29.45;13.85;;;;;;;;;;788169;177;919958;-70
2021/09/09 05:15:47;;;;;;;21.90;16.77;;;;;;;;;;782957;177;917472;-69
2021/09/09 05:18:12;;;;;;;25.03;16.27;;;;;;;;;;781592;177;921497;-69
2021/09/09 05:20:38;;;;;;;25.90;17.33;;;;;;;;;;788504;177;917483;-70
2021/09/09 05:23:04;;;;;;;25.37;17.83;;;;;;;;;;781254;177;1030218;-70
2021/09/09 05:25:30;;;;;;;28.08;17.25;;;;;;;;;;783142;177;1013020;-70
2021/09/09 05:27:56;;;;;;;34.23;19.47;;;;;;;;;;790488;177;917223;-69
2021/09/09 05:30:22;;;;;;;31.70;19.83;;;;;;;;;;785977;177;916968;-70
2021/09/09 05:32:47;;;;;;;32.70;19.75;;;;;;;;;;783709;177;919893;-71
2021/09/09 05:35:13;;;;;;;30.43;19.40;;;;;;;;;;785993;176;914432;-69
2021/09/09 05:37:39;;;;;;;31.13;20.17;;;;;;;;;;786260;174;911952;-69
2021/09/09 05:40:05;;;;;;;33.40;21.13;;;;;;;;;;785788;177;919035;-69
2021/09/09 05:42:31;;;;;;;38.33;23.23;;;;;;;;;;786961;176;924441;-69
2021/09/09 05:44:57;;;;;;;48.13;26.53;;;;;;;;;;788715;177;904771;-69
2021/09/09 05:47:23;;;;;;;40.90;25.60;;;;;;;;;;774365;180;919478;-69
2021/09/09 05:49:49;;;;;;;40.72;23.48;;;;;;;;;;773552;181;919366;-68
2021/09/09 05:52:15;;;;;;;39.57;25.03;;;;;;;;;;783465;177;918503;-69
2021/09/09 05:54:41;;;;;;;37.47;22.67;;;;;;;;;;782480;177;919011;-69
2021/09/09 05:57:06;;;;;;;38.87;23.73;;;;;;;;;;778389;177;918817;-69
2021/09/09 05:59:34;;;;;;;42.58;23.10;;;;;;;;;;786789;176;919216;-67
2021/09/09 06:02:00;;;;;;;40.67;26.00;;;;;;;;;;772731;179;918767;-69
2021/09/09 06:04:26;;;;;;;40.20;23.83;;;;;;;;;;781352;176;919761;-69
2021/09/09 06:06:51;;;;;;;41.47;24.00;;;;;;;;;;782874;177;921538;-70
2021/09/09 06:09:17;;;;;;;37.90;25.53;;;;;;;;;;786705;177;919297;-69
2021/09/09 06:11:43;;;;;;;38.72;25.98;;;;;;;;;;782879;177;920495;-70
2021/09/09 06:14:09;;;;;;;36.33;23.73;;;;;;;;;;780321;177;1021360;-70
2021/09/09 06:16:35;;;;;;;30.87;22.27;;;;;;;;;;786871;177;918991;-70
2021/09/09 06:19:01;;;;;;;34.67;24.57;;;;;;;;;;782971;177;919305;-70
2021/09/09 06:21:26;;;;;;;36.43;20.50;;;;;;;;;;785181;177;918090;-71
2021/09/09 06:23:52;;;;;;;26.60;19.70;;;;;;;;;;790185;177;624837;-71
2021/09/09 06:26:18;;;;;;;27.13;18.47;;;;;;;;;;784924;177;919512;-70
2021/09/09 06:28:44;;;;;;;22.23;17.70;;;;;;;;;;778353;180;652113;-72
2021/09/09 06:31:10;;;;;;;19.43;15.27;;;;;;;;;;762039;184;614943;-70
2021/09/09 06:33:36;;;;;;;17.03;13.40;;;;;;;;;;788506;177;632113;-70
2021/09/09 06:36:01;;;;;;;20.03;14.57;;;;;;;;;;790395;176;917382;-69
2021/09/09 06:38:27;;;;;;;20.12;13.35;;;;;;;;;;781765;175;918730;-71
2021/09/09 06:40:53;;;;;;;19.40;14.23;;;;;;;;;;785818;177;918619;-70
2021/09/09 06:43:19;;;;;;;26.03;15.27;;;;;;;;;;774230;180;878460;-71
2021/09/09 06:45:45;;;;;;;22.47;15.20;;;;;;;;;;777129;180;926988;-71
2021/09/09 06:48:11;;;;;;;19.53;13.77;;;;;;;;;;771716;181;918811;-72
2021/09/09 06:50:36;;;;;;;23.57;12.40;;;;;;;;;;755674;183;918735;-72
2021/09/09 06:53:02;;;;;;;26.93;12.47;;;;;;;;;;778396;179;919608;-72
2021/09/09 06:55:28;;;;;;;17.73;11.47;;;;;;;;;;776230;179;918371;-71
2021/09/09 06:57:54;;;;;;;14.67;10.20;;;;;;;;;;779324;179;918852;-72
2021/09/09 07:00:20;;;;;;;14.27;8.37;;;;;;;;;;777307;179;918634;-72
2021/09/09 07:02:46;;;;;;;11.63;8.70;;;;;;;;;;785269;176;919046;-73
2021/09/09 07:05:12;;;;;;;10.33;8.30;;;;;;;;;;789675;177;918839;-74
2021/09/09 07:07:37;;;;;;;9.87;7.70;;;;;;;;;;784023;177;921312;-73
2021/09/09 07:10:04;;;;;;;11.73;7.33;;;;;;;;;;782664;177;944149;-75
2021/09/09 07:12:29;;;;;;;10.23;7.27;;;;;;;;;;787034;177;918016;-74
2021/09/09 07:14:55;;;;;;;8.03;6.70;;;;;;;;;;783778;177;919349;-75
2021/09/09 07:17:21;;;;;;;9.87;6.10;;;;;;;;;;785215;177;918244;-74
2021/09/09 07:19:47;;;;;;;11.13;6.60;;;;;;;;;;781865;177;938343;-74
2021/09/09 07:22:13;;;;;;;10.43;6.57;;;;;;;;;;770705;180;888448;-74
2021/09/09 07:24:39;;;;;;;7.80;5.30;;;;;;;;;;780899;177;915891;-74
2021/09/09 07:27:04;;;;;;;8.70;6.30;;;;;;;;;;781904;177;914961;-73
2021/09/09 07:29:30;;;;;;;8.00;5.70;;;;;;;;;;787542;177;915106;-74
2021/09/09 07:31:56;;;;;;;8.93;5.10;;;;;;;;;;782367;177;1014648;-73
2021/09/09 07:34:22;;;;;;;8.83;5.23;;;;;;;;;;783896;177;918481;-75
2021/09/09 07:36:48;;;;;;;7.47;5.70;;;;;;;;;;789698;177;918254;-74
2021/09/09 07:39:14;;;;;;;9.77;5.90;;;;;;;;;;780220;177;918262;-74
2021/09/09 07:41:39;;;;;;;6.23;4.50;;;;;;;;;;782680;177;919304;-74
2021/09/09 07:44:05;;;;;;;8.83;4.50;;;;;;;;;;780786;177;1840235;-74
2021/09/09 07:46:31;;;;;;;8.10;5.53;;;;;;;;;;784023;175;919150;-74
2021/09/09 07:48:57;;;;;;;7.90;4.90;;;;;;;;;;786232;177;919047;-74
2021/09/09 07:51:23;;;;;;;8.67;4.60;;;;;;;;;;784713;175;919746;-71
2021/09/09 07:53:49;;;;;;;10.80;5.10;;;;;;;;;;790104;175;918656;-73
2021/09/09 07:56:14;;;;;;;6.97;4.80;;;;;;;;;;785028;177;918859;-74
2021/09/09 07:58:40;;;;;;;7.00;4.20;;;;;;;;;;783295;177;931418;-75
2021/09/09 08:01:06;;;;;;;11.77;5.30;;;;;;;;;;787580;177;918842;-74
2021/09/09 08:03:32;;;;;;;8.27;4.30;;;;;;;;;;783031;177;918735;-74
2021/09/09 08:05:58;;;;;;;8.00;5.07;;;;;;;;;;783491;177;934706;-76
2021/09/09 08:08:24;;;;;;;8.97;4.97;;;;;;;;;;789566;177;918193;-75
2021/09/09 08:10:49;;;;;;;7.75;4.95;;;;;;;;;;786546;176;919142;-77
2021/09/09 08:13:15;;;;;;;8.70;5.07;;;;;;;;;;784192;177;918409;-75
2021/09/09 08:15:41;;;;;;;6.40;4.83;;;;;;;;;;777627;178;918729;-73
2021/09/09 08:18:07;;;;;;;10.40;5.93;;;;;;;;;;783366;174;918132;-75
2021/09/09 08:20:33;;;;;;;8.80;5.60;;;;;;;;;;785991;176;919658;-75
2021/09/09 08:22:59;;;;;;;8.00;5.73;;;;;;;;;;781976;177;918679;-74
2021/09/09 08:25:24;;;;;;;7.87;5.50;;;;;;;;;;790364;177;919450;-76
2021/09/09 08:27:50;;;;;;;6.30;4.73;;;;;;;;;;782307;177;929511;-73
2021/09/09 08:30:16;;;;;;;8.70;5.50;;;;;;;;;;781874;177;928594;-74
2021/09/09 08:32:42;;;;;;;9.03;5.13;;;;;;;;;;789421;177;914849;-75
2021/09/09 08:35:08;;;;;;;7.47;6.00;;;;;;;;;;783247;177;923604;-74
2021/09/09 08:37:34;;;;;;;6.87;4.80;;;;;;;;;;782046;177;918810;-72
2021/09/09 08:40:00;;;;;;;6.97;5.15;;;;;;;;;;785024;176;918941;-74
2021/09/09 08:42:26;;;;;;;8.80;5.10;;;;;;;;;;772418;180;815042;-75
2021/09/09 08:44:52;;;;;;;7.90;5.30;;;;;;;;;;784500;177;919015;-76
2021/09/09 08:47:18;;;;;;;8.80;4.83;;;;;;;;;;782570;177;918669;-73
2021/09/09 08:49:44;;;;;;;8.33;5.43;;;;;;;;;;789411;177;920255;-77
2021/09/09 08:52:11;;;;;;;6.63;5.03;;;;;;;;;;778341;177;920487;-75
2021/09/09 08:54:36;;;;;;;7.63;4.73;;;;;;;;;;782514;177;918996;-75
2021/09/09 08:57:02;;;;;;;8.33;4.90;;;;;;;;;;787343;177;919431;-75
2021/09/09 08:59:27;;;;;;;7.47;5.50;;;;;;;;;;784980;177;919357;-77
2021/09/09 09:02:06;;;;;;;13.30;6.80;;;;;;;;;;784165;177;919502;-74
2021/09/09 09:04:32;;;;;;;9.17;5.63;;;;;;;;;;786211;177;816625;-76
2021/09/09 09:06:59;;;;;;;10.60;5.20;;;;;;;;;;790380;177;918939;-73
2021/09/09 09:09:24;;;;;;;10.30;5.53;;;;;;;;;;785215;177;918170;-74
2021/09/09 09:11:50;;;;;;;7.57;5.23;;;;;;;;;;784004;177;932340;-75
2021/09/09 09:14:18;;;;;;;11.02;4.90;;;;;;;;;;786098;177;1020938;-75
2021/09/09 09:16:42;;;;;;;8.03;5.20;;;;;;;;;;783399;176;917464;-77
2021/09/09 09:19:09;;;;;;;7.33;4.60;;;;;;;;;;775489;177;918506;-75
2021/09/09 09:21:37;;;;;;;5.63;4.30;;;;;;;;;;781812;177;919821;-72
2021/09/09 09:24:01;;;;;;;7.97;5.00;;;;;;;;;;786453;177;917997;-71
2021/09/09 09:26:27;;;;;;;8.20;4.90;;;;;;;;;;782165;176;919613;-74
2021/09/09 09:28:54;;;;;;;11.27;5.40;;;;;;;;;;782761;177;940075;-72
2021/09/09 09:31:21;;;;;;;7.77;4.93;;;;;;;;;;788479;177;918597;-73
2021/09/09 09:33:46;;;;;;;25.60;5.60;;;;;;;;;;783685;177;919843;-70
2021/09/09 09:36:12;;;;;;;8.10;5.10;;;;;;;;;;781579;177;1119544;-71
2021/09/09 09:38:38;;;;;;;7.10;4.30;;;;;;;;;;781476;177;919091;-72
2021/09/09 09:41:05;;;;;;;6.83;4.80;;;;;;;;;;770310;180;917946;-71
2021/09/09 09:43:30;;;;;;;8.17;4.90;;;;;;;;;;780599;177;978392;-71
2021/09/09 09:45:58;;;;;;;8.77;5.90;;;;;;;;;;782705;177;923253;-72
2021/09/09 09:48:24;;;;;;;13.33;5.50;;;;;;;;;;787638;177;922899;-71
2021/09/09 09:50:50;;;;;;;5.87;5.00;;;;;;;;;;784174;178;918409;-72
2021/09/09 09:53:17;;;;;;;14.73;5.00;;;;;;;;;;781741;177;919197;-71
2021/09/09 09:55:42;;;;;;;8.10;4.57;;;;;;;;;;787338;177;919645;-71
2021/09/09 09:58:07;;;;;;;7.60;4.10;;;;;;;;;;781173;177;965888;-70
2021/09/09 10:00:33;;;;;;;9.90;4.90;;;;;;;;;;784814;176;937968;-69
2021/09/09 10:02:59;;;;;;;5.87;4.60;;;;;;;;;;782041;178;918826;-69
2021/09/09 10:05:25;;;;;;;9.00;4.77;;;;;;;;;;763582;181;918557;-74
2021/09/09 10:07:51;;;;;;;11.83;4.37;;;;;;;;;;779028;177;918665;-70
2021/09/09 10:10:17;;;;;;;6.30;4.20;;;;;;;;;;787051;176;918247;-72
2021/09/09 10:12:44;;;;;;;7.73;4.33;;;;;;;;;;789830;177;920287;-70
2021/09/09 10:15:12;;;;;;;6.50;4.37;;;;;;;;;;783912;177;919952;-71
2021/09/09 10:17:34;;;;;;;8.82;4.90;;;;;;;;;;782870;177;933218;-71
2021/09/09 10:20:21;;;;;;;10.33;4.73;;;;;;;;;;789644;177;918803;-70
2021/09/09 10:22:53;;;;;;;6.55;4.22;;;;;;;;;;776701;175;919067;-72
2021/09/09 10:25:18;;;;;;;6.97;4.57;;;;;;;;;;782351;178;918187;-72
2021/09/09 10:27:44;;;;;;;6.33;4.40;;;;;;;;;;782987;177;918657;-72
2021/09/09 10:30:19;;;;;;;6.00;4.07;;;;;;;;;;785158;176;916781;-72
2021/09/09 10:32:47;;;;;;;6.47;4.07;;;;;;;;;;783386;177;914466;-70
2021/09/09 10:35:29;;;;;;;8.83;5.23;;;;;;;;;;786541;177;914973;-72
2021/09/09 10:37:48;;;;;;;6.03;4.17;;;;;;;;;;781165;177;971831;-69
2021/09/09 10:40:29;;;;;;;8.23;4.40;;;;;;;;;;780597;177;916330;-71
2021/09/09 10:42:55;;;;;;;6.33;3.70;;;;;;;;;;780669;178;1138917;-72
2021/09/09 10:45:27;;;;;;;6.20;3.77;;;;;;;;;;780534;177;919861;-75
2021/09/09 10:47:53;;;;;;;6.90;3.60;;;;;;;;;;787249;177;918778;-72
2021/09/09 10:50:19;;;;;;;9.57;3.83;;;;;;;;;;786284;177;918438;-72
2021/09/09 10:52:50;;;;;;;12.73;3.90;;;;;;;;;;785001;177;919487;-71
2021/09/09 10:55:16;;;;;;;8.40;3.90;;;;;;;;;;784399;177;936614;-73
2021/09/09 10:57:42;;;;;;;6.25;3.72;;;;;;;;;;787678;177;918203;-67
2021/09/09 11:00:09;;;;;;;5.40;3.20;;;;;;;;;;783775;177;931731;-72
2021/09/09 11:02:34;;;;;;;5.30;3.70;;;;;;;;;;784702;177;919067;-71
2021/09/09 11:05:01;;;;;;;8.87;4.47;;;;;;;;;;789034;177;918233;-74
2021/09/09 11:07:27;;;;;;;11.07;4.20;;;;;;;;;;780776;177;918322;-71
2021/09/09 11:09:58;;;;;;;6.50;4.13;;;;;;;;;;785297;177;1021461;-72
2021/09/09 11:12:24;;;;;;;9.07;3.90;;;;;;;;;;783389;177;916094;-69
2021/09/09 11:14:49;;;;;;;6.97;4.17;;;;;;;;;;790894;177;919551;-73
2021/09/09 11:17:16;;;;;;;7.20;3.73;;;;;;;;;;785187;177;919759;-71
2021/09/09 11:19:41;;;;;;;8.23;3.73;;;;;;;;;;778791;177;1636767;-69
2021/09/09 11:22:07;;;;;;;9.00;4.63;;;;;;;;;;790894;177;960839;-70
2021/09/09 11:24:34;;;;;;;6.15;3.47;;;;;;;;;;784668;176;918645;-70
2021/09/09 11:26:59;;;;;;;12.40;3.90;;;;;;;;;;783665;177;919385;-73
2021/09/09 11:29:24;;;;;;;6.80;3.80;;;;;;;;;;791531;177;919904;-70
2021/09/09 11:31:53;;;;;;;6.57;4.30;;;;;;;;;;782452;177;918854;-71
2021/09/09 11:34:21;;;;;;;5.63;3.43;;;;;;;;;;782578;177;918895;-69
2021/09/09 11:36:47;;;;;;;5.33;3.90;;;;;;;;;;783283;177;919417;-73
2021/09/09 11:39:12;;;;;;;5.40;3.80;;;;;;;;;;790233;177;924983;-70
2021/09/09 11:41:38;;;;;;;6.70;4.00;;;;;;;;;;783894;177;920781;-70
2021/09/09 11:44:04;;;;;;;7.67;3.53;;;;;;;;;;783794;177;917223;-71
2021/09/09 11:46:31;;;;;;;5.57;3.93;;;;;;;;;;788146;177;919319;-72
2021/09/09 11:48:57;;;;;;;5.93;3.60;;;;;;;;;;783150;177;917089;-71
2021/09/09 11:51:29;;;;;;;5.37;4.30;;;;;;;;;;781786;177;918076;-73
2021/09/09 11:53:55;;;;;;;7.60;4.20;;;;;;;;;;782569;177;924607;-71
2021/09/09 11:56:22;;;;;;;4.83;3.60;;;;;;;;;;785274;177;930281;-71
2021/09/09 11:58:47;;;;;;;8.37;3.80;;;;;;;;;;781153;177;927688;-72
2021/09/09 12:01:13;;;;;;;8.95;4.32;;;;;;;;;;783398;177;918954;-71
2021/09/09 12:03:39;;;;;;;5.30;3.33;;;;;;;;;;785919;177;917965;-75
2021/09/09 12:06:04;;;;;;;7.70;3.83;;;;;;;;;;784818;177;913826;-72
2021/09/09 12:08:35;;;;;;;6.23;3.27;;;;;;;;;;782936;177;915605;-72
2021/09/09 12:11:05;;;;;;;4.23;3.83;;;;;;;;;;786119;177;913573;-79
2021/09/09 12:13:33;;;;;;;8.10;4.20;;;;;;;;;;776000;178;935337;-75
2021/09/09 12:15:57;;;;;;;6.20;3.70;;;;;;;;;;782281;177;915757;-77
2021/09/09 12:18:23;;;;;;;6.33;3.63;;;;;;;;;;781916;177;915175;-75
2021/09/09 12:20:49;;;;;;;6.03;3.80;;;;;;;;;;787254;177;918675;-76
2021/09/09 12:23:16;;;;;;;9.83;4.10;;;;;;;;;;784184;177;914571;-73
2021/09/09 12:25:42;;;;;;;12.70;3.60;;;;;;;;;;782889;177;1055537;-77
2021/09/09 12:28:13;;;;;;;8.10;3.37;;;;;;;;;;783281;177;816064;-75
2021/09/09 12:30:37;;;;;;;6.40;3.60;;;;;;;;;;788399;177;798560;-77
2021/09/09 12:33:03;;;;;;;9.00;3.90;;;;;;;;;;784522;175;918509;-75
2021/09/09 12:35:29;;;;;;;5.20;3.67;;;;;;;;;;784498;177;918250;-76
2021/09/09 12:38:01;;;;;;;6.27;3.13;;;;;;;;;;790306;177;918539;-76
2021/09/09 12:40:32;;;;;;;10.03;3.30;;;;;;;;;;777880;180;910233;-77
2021/09/09 12:42:58;;;;;;;5.40;3.90;;;;;;;;;;775558;178;829513;-76
2021/09/09 12:45:24;;;;;;;6.90;3.80;;;;;;;;;;752433;185;919197;-77
2021/09/09 12:47:50;;;;;;;5.73;4.37;;;;;;;;;;786566;177;814493;-75
2021/09/09 12:50:22;;;;;;;5.37;3.33;;;;;;;;;;779781;178;920196;-76
2021/09/09 12:52:52;;;;;;;7.97;5.00;;;;;;;;;;782369;177;931038;-77
2021/09/09 12:55:18;;;;;;;4.37;3.40;;;;;;;;;;782503;177;920701;-78
2021/09/09 12:57:44;;;;;;;6.10;3.80;;;;;;;;;;787674;177;918486;-78
2021/09/09 13:00:10;;;;;;;10.63;3.10;;;;;;;;;;783231;176;1020957;-76
2021/09/09 13:02:36;;;;;;;4.80;3.40;;;;;;;;;;783448;177;919849;-77
2021/09/09 13:05:04;;;;;;;7.60;3.63;;;;;;;;;;785598;177;713510;-73
2021/09/09 13:07:32;;;;;;;5.70;3.20;;;;;;;;;;783113;175;919142;-72
2021/09/09 13:09:56;;;;;;;6.10;3.50;;;;;;;;;;786158;176;918803;-78
2021/09/09 13:12:22;;;;;;;4.75;3.20;;;;;;;;;;784542;177;917273;-75
2021/09/09 13:14:48;;;;;;;4.80;3.07;;;;;;;;;;788779;177;918144;-73
2021/09/09 13:17:13;;;;;;;6.20;3.90;;;;;;;;;;783216;177;957347;-80
2021/09/09 13:19:39;;;;;;;7.27;3.80;;;;;;;;;;785553;177;905098;-79
2021/09/09 13:22:05;;;;;;;9.97;3.80;;;;;;;;;;788384;177;916675;-76
2021/09/09 13:24:31;;;;;;;8.50;3.50;;;;;;;;;;783281;177;920467;-79
2021/09/09 13:26:57;;;;;;;17.50;4.27;;;;;;;;;;784587;177;920580;-74
2021/09/09 13:29:23;;;;;;;5.53;3.60;;;;;;;;;;786976;177;909167;-80
2021/09/09 13:31:49;;;;;;;16.47;4.17;;;;;;;;;;773536;180;708905;-81
2021/09/09 13:34:14;;;;;;;13.33;7.53;;;;;;;;;;783231;177;914653;-78
2021/09/09 13:36:42;;;;;;;10.60;6.77;;;;;;;;;;784954;177;879255;-74
2021/09/09 13:39:06;;;;;;;8.60;5.10;;;;;;;;;;786084;177;1032218;-79
2021/09/09 13:41:32;;;;;;;11.97;7.03;;;;;;;;;;784052;177;913822;-79
2021/09/09 13:43:58;;;;;;;18.03;8.87;;;;;;;;;;784527;177;998004;-77
2021/09/09 13:46:24;;;;;;;6.57;4.40;;;;;;;;;;791528;177;923586;-77
2021/09/09 13:48:50;;;;;;;8.63;4.63;;;;;;;;;;785502;177;1015139;-74
2021/09/09 13:51:16;;;;;;;10.30;5.57;;;;;;;;;;786092;177;829525;-74
2021/09/09 13:53:42;;;;;;;6.07;3.90;;;;;;;;;;789101;177;901215;-75
2021/09/09 13:56:09;;;;;;;8.73;4.50;;;;;;;;;;786208;177;918265;-76
2021/09/09 13:58:34;;;;;;;9.57;5.50;;;;;;;;;;784478;177;918787;-83
2021/09/09 14:01:00;;;;;;;6.30;4.00;;;;;;;;;;786267;177;917843;-75
2021/09/09 14:03:25;;;;;;;7.27;4.13;;;;;;;;;;787270;177;830819;-77
2021/09/09 14:05:51;;;;;;;8.87;3.50;;;;;;;;;;783240;177;915790;-83
2021/09/09 14:08:17;;;;;;;9.77;3.80;;;;;;;;;;783096;177;994162;-76
2021/09/09 14:10:43;;;;;;;5.50;3.50;;;;;;;;;;779965;178;816214;-76